高松空港の過去48時間の天気

高松空港 (Takamatsu)

現在時刻: 6/19 15:06 JST (6/19 06:06 UTC) 以下の時間は現地時間です。

過去48時間のMETAR気象情報
時間 風向 風速(m/s) 視程 気温(℃) 湿度(%) 気圧(hPa) 天気現象
19 14:00 不定 2 10km以上 27 62 1005
19 13:00 不定 1 10km以上 26 54 1006
19 12:00 東北東 3 10km以上 25 61 1007
19 11:00 東北東 3 10km以上 24 69 1007
19 10:00 北東 3 10km以上 24 65 1008
19 09:00 北東 3 10km以上 23 65 1008
19 08:00 東北東 2 10km以上 22 73 1009
19 07:00 南東 2 10km以上 20 83 1009
19 06:20 南東 3 10km以上 18 88 1009
18 21:00 南東 4 10km以上 19 88 1011
18 20:00 南南東 2 10km以上 20 83 1011
18 19:00 北北西 2 10km以上 22 69 1011
18 17:00 不定 1 10km以上 24 61 1010
18 16:00 西北西 2 10km以上 24 69 1011
18 15:00 西北西 2 10km以上 24 65 1011
18 14:00 不定 2 10km以上 23 69 1011
18 13:00 2 10km以上 24 65 1012
18 12:00 北西 2 10km以上 24 57 1012
18 11:00 不定 2 10km以上 23 61 1012
18 10:00 北東 2 10km以上 23 65 1012
18 09:00 2 10km以上 22 65 1013
18 08:00 南東 2 10km以上 22 65 1013
18 07:00 南東 3 10km以上 19 78 1013
18 06:20 南東 3 10km以上 17 83 1013
RJOT 190500Z VRB04KT 9999 FEW030 BKN/// 27/19 Q1005
RJOT 190400Z VRB02KT 9999 FEW030 BKN/// 26/16 Q1006
RJOT 190300Z 06005KT 330V140 9999 FEW030 BKN/// 25/17 Q1007
RJOT 190200Z 07006KT 020V120 9999 FEW030 BKN/// 24/18 Q1007
RJOT 190100Z 04005KT 290V100 9999 FEW030 BKN/// 24/17 Q1008
RJOT 190000Z 05006KT 010V070 9999 FEW030 BKN/// 23/16 Q1008
RJOT 182300Z 07004KT 030V100 CAVOK 22/17 Q1009
RJOT 182200Z 13004KT 090V160 CAVOK 20/17 Q1009
RJOT 182120Z 13006KT 9999 FEW060 BKN/// 18/16 Q1009 RMK 1SC060 A2981
RJOT 181200Z 14007KT 9999 FEW025 BKN/// 19/17 Q1011
RJOT 181100Z 15003KT 9999 FEW025 SCT/// 20/17 Q1011
RJOT 181000Z 33004KT 300V030 9999 FEW025 22/16 Q1011
RJOT 180800Z VRB02KT 9999 FEW025 BKN/// 24/16 Q1010
RJOT 180700Z 30004KT 190V340 9999 FEW025 BKN/// 24/18 Q1011
RJOT 180600Z 29004KT 240V330 9999 FEW020 BKN/// 24/17 Q1011
RJOT 180500Z VRB03KT 9999 FEW020 SCT030 BKN/// 23/17 Q1011
RJOT 180400Z 35004KT 300V030 9999 FEW030 BKN/// 24/17 Q1012
RJOT 180300Z 32003KT 240V030 9999 FEW030 BKN/// 24/15 Q1012
RJOT 180200Z VRB03KT 9999 FEW030 BKN/// 23/15 Q1012
RJOT 180100Z 04004KT 340V080 9999 FEW030 BKN/// 23/16 Q1012
RJOT 180000Z 01003KT 310V070 9999 FEW030 BKN/// 22/15 Q1013
RJOT 172300Z 13003KT 100V160 9999 FEW030 BKN/// 22/15 Q1013
RJOT 172200Z 14005KT CAVOK 19/15 Q1013
RJOT 172120Z 14006KT 9999 FEW025 BKN/// 17/14 Q1013 RMK 1CU025 A2993